ADDS METAR Data INFO
IDs: Format: Raw Decoded Include TAF

Data at: 0750 UTC 23 Jul 2018

KUIN 230654Z AUTO 34005KT 8SM CLR 19/17 A2997 RMK AO2 SLP142 T01890172
KUIN 230554Z AUTO 35004KT 9SM CLR 19/17 A2997 RMK AO2 SLP144 T01890172 10239 20189 402670183 50002
KUIN 230454Z AUTO 36005KT 10SM SCT050 20/18 A2998 RMK AO2 SLP146 T02000183
KUIN 230354Z AUTO 36008KT 10SM FEW024 BKN050 22/18 A2998 RMK AO2 SLP145 T02170183
KUIN 230254Z AUTO 35007KT 10SM OVC050 22/18 A2997 RMK AO2 SLP142 T02220183 53007
KUIN 230154Z AUTO 35006KT 10SM OVC049 22/18 A2996 RMK AO2 SLP139 T02220183
KUIN 230054Z AUTO 01008KT 10SM OVC048 23/18 A2995 RMK AO2 SLP137 T02280178
KUIN 222354Z AUTO 01012KT 10SM OVC050 24/18 A2995 RMK AO2 SLP134 T02390178 10267 20222 53003
KUIN 222254Z AUTO 36010KT 10SM OVC048 24/18 A2994 RMK AO2 SLP131 T02440178
KUIN 222154Z AUTO 35011KT 10SM OVC050 26/18 A2994 RMK AO2 SLP131 T02610178
KUIN 222054Z AUTO 34011G19KT 10SM SCT028 BKN047 26/18 A2994 RMK AO2 SLP131 T02560178 56006
KUIN 221954Z AUTO 34010KT 10SM FEW023 BKN040 OVC047 24/18 A2994 RMK AO2 SLP133 T02440183
KUIN 221854Z AUTO 33010KT 10SM FEW019 OVC037 24/18 A2995 RMK AO2 SLP134 T02390178
KUIN 221839Z AUTO 33010KT 10SM FEW019 SCT024 OVC037 24/18 A2995 RMK AO2 T02390178
KUIN 221754Z AUTO 35010KT 10SM FEW017 BKN024 OVC030 23/17 A2995 RMK AO2 SLP137 T02280172 10233 20189 53002
KUIN 221654Z AUTO 36011KT 10SM BKN021 OVC029 23/17 A2995 RMK AO2 SLP134 T02280172
KUIN 221554Z AUTO 34011KT 10SM OVC018 22/17 A2995 RMK AO2 SLP135 T02220172
KUIN 221534Z AUTO 34012KT 10SM OVC016 22/17 A2995 RMK AO2 T02220172
KUIN 221518Z AUTO 01013KT 10SM OVC014 22/18 A2994 RMK AO2 T02220178
KUIN 221454Z AUTO 01013KT 10SM OVC015 22/18 A2995 RMK AO2 SLP135 T02170178 50000
KUIN 221452Z AUTO 01011KT 10SM OVC015 22/18 A2995 RMK AO2
KUIN 221416Z AUTO 35011KT 10SM BKN013 OVC028 22/18 A2994 RMK AO2 T02170178
KUIN 221354Z AUTO 35012KT 10SM SCT012 BKN026 OVC031 21/18 A2995 RMK AO2 SLP135 T02110178
KUIN 221351Z AUTO 35011KT 10SM SCT012 OVC026 21/18 A2995 RMK AO2
KUIN 221332Z AUTO 34012KT 10SM BKN011 21/18 A2995 RMK AO2 T02110178
KUIN 221254Z AUTO 34011KT 10SM FEW011 21/18 A2994 RMK AO2 SLP132 T02060178
KUIN 221154Z AUTO 34006KT 9SM CLR 19/17 A2993 RMK AO2 SLP129 T01890172 10211 20183 53005
KUIN 221054Z AUTO 34007KT 8SM CLR 18/17 A2993 RMK AO2 SLP128 T01830172
KUIN 220954Z AUTO 33006KT 10SM CLR 19/17 A2991 RMK AO2 SLP123 T01890172
KUIN 220854Z AUTO 34007KT 10SM CLR 19/18 A2991 RMK AO2 SLP124 T01940178 50000
KUIN 220754Z AUTO 33006KT 9SM CLR 19/18 A2991 RMK AO2 SLP124 T01890178
KUIN 220654Z AUTO 34007KT 10SM CLR 20/18 A2992 RMK AO2 SLP125 T02000183
KUIN 220554Z AUTO 33008KT 10SM CLR 21/18 A2991 RMK AO2 SLP124 T02110183 10267 20206 402720194 56004
KUIN 220454Z AUTO 32009KT 10SM CLR 21/18 A2992 RMK AO2 SLP125 T02110183
KUIN 220354Z AUTO 32006KT 10SM CLR 22/18 A2992 RMK AO2 SLP127 T02170183
KUIN 220254Z AUTO 32006KT 10SM CLR 22/18 A2993 RMK AO2 SLP129 T02220183 53006
KUIN 220154Z AUTO 32006KT 10SM CLR 23/18 A2992 RMK AO2 SLP125 T02280183
KUIN 220054Z AUTO 32006KT 10SM CLR 25/19 A2991 RMK AO2 SLP122 T02500189
KUIN 212354Z AUTO 33010KT 10SM SCT034 BKN047 26/19 A2991 RMK AO2 SLP122 T02610189 10272 20228 55002
KUIN 212254Z AUTO 32013KT 10SM FEW030 SCT040 27/19 A2991 RMK AO2 SLP122 T02720189
KUIN 212206Z AUTO 32011G18KT 10SM SCT028 26/18 A2991 RMK AO2 T02610183
KUIN 212154Z AUTO 32010KT 10SM BKN026 26/19 A2991 RMK AO2 SLP123 T02610189
KUIN 212054Z AUTO 33012KT 10SM OVC023 26/18 A2992 RMK AO2 SLP124 T02560183 58003
KUIN 211954Z AUTO 32014KT 10SM OVC021 23/18 A2993 RMK AO2 SLP128 T02330178